Overview Statistics Trail Chart Weather Telemetry Raw packets
 

This is the latest recevied weather packets stored in our database for station/object EB1HRW. If no packets are shown the sender has not sent any weather packets the latest 10 day(s).

<< 1 2 3 4 >>
Time Temp. Humidity Pressure Rain* Wind** Luminosity Snow
1788514747 25.56° C 34% 1020.5 hPa 0 mm - - -
1788514453 25° C 37% 1020.7 hPa 0 mm - - -
1788514097 25° C 38% 1020.8 hPa 0 mm - - -
1788513219 23.33° C 39% 1020.9 hPa 0 mm - - -
1788512320 22.22° C 43% 1020.9 hPa 0 mm - - -
1788511567 21.67° C 43% 1020.9 hPa 0 mm - - -
1788511082 21.11° C 45% 1020.9 hPa 0 mm - - -
1788506087 16.11° C 59% 1020.3 hPa 0 mm - - -
1788505187 15.56° C 57% 1020.1 hPa 0 mm - - -
1788504286 15.56° C 59% 1020 hPa 0 mm - - -
1788503723 15° C 59% 1020 hPa 0 mm - - -
1788496524 15.56° C 56% 1019.8 hPa 0 mm - - -
1788495623 15.56° C 59% 1019.9 hPa 0 mm - - -
1788494723 15.56° C 63% 1019.9 hPa 0 mm - - -
1788493823 15.56° C 61% 1019.9 hPa 0 mm - - -
1788492922 16.11° C 58% 1019.9 hPa 0 mm - - -
1788492025 16.11° C 60% 1019.9 hPa 0 mm - - -
1788490224 16.67° C 56% 1019.9 hPa 0 mm - - -
1788489324 16.11° C 59% 1019.9 hPa 0 mm - - -
1788488424 16.67° C 58% 1020 hPa 0 mm - - -
1788487524 17.78° C 53% 1020.1 hPa 0 mm - - -
1788486624 17.78° C 52% 1020.1 hPa 0 mm - - -
1788485725 17.78° C 50% 1020.4 hPa 0 mm - - -
1788484825 17.78° C 48% 1020.4 hPa 0 mm - - -
1788483923 18.33° C 48% 1020.5 hPa 0 mm - - -

* Rain latest hour (hover to see other rain measurements)
** Current wind speed in m/s (hover to see current wind gust speed)